Northford, Connecticut
Current Conditions -  °F | °C
As of 10:53 AM on Thursday 23 Oct 2014 (Local Time) from KMMK Reporting Station
Overcast Overcast  
Wind Chill: 53°   Ceiling: 1900
Heat Index: 53°   Visibility: 10mi
Dew Point: 45°   Wind: 15mph
Humidity: 74%   Direction: 10°N
Pressure: 29.66"   Gusts: 32mph
Location:  41.39°N, 72.79°W
Report Text: KMMK 231453Z AUTO 01013G28KT 10SM OVC019 12/07 A2966 RMK AO2 PK WND 01028/1445 SLP043 T01170072 57001 TSNO
Loading
Personal Weather Stations






























Interactive Weather Map
Tropical Storm Tracking
New forecast layout! Learn more

10-Day Weather Forecast

Advertisements
Track Severe Weather on mobile